Time;durP1;ratioP1;P1;durP2;ratioP2;P2;SDS_P1;SDS_P2;PMS_P1;PMS_P2;Temp;Humidity;BMP_temperature;BMP_pressure;BME280_temperature;BME280_humidity;BME280_pressure;Samples;Min_cycle;Max_cycle;Signal;HPM_P1;HPM_P2
2022/05/09 00:02:16;;;;;;;;;;;;;;;;;;5090689;28;840;-65
2022/05/09 00:04:41;;;;;;;;;;;;;;;;;;5090628;28;1145;-65
2022/05/09 00:07:07;;;;;;;;;;;;;;;;;;5090037;28;1149;-65
2022/05/09 00:09:32;;;;;;;;;;;;;;;;;;5092097;28;868;-65
2022/05/09 00:11:58;;;;;;;;;;;;;;;;;;5091709;28;1981;-65
2022/05/09 00:14:23;;;;;;;;;;;;;;;;;;5089933;28;1304;-64
2022/05/09 00:16:50;;;;;;;;;;;;;;;;;;5091423;28;904;-65
2022/05/09 00:19:17;;;;;;;;;;;;;;;;;;5091532;28;876;-64
2022/05/09 00:21:43;;;;;;;;;;;;;;;;;;5090041;28;1411;-64
2022/05/09 00:24:12;;;;;;;;;;;;;;;;;;5090872;28;844;-64
2022/05/09 00:26:38;;;;;;;;;;;;;;;;;;5091511;28;785;-64
2022/05/09 00:29:03;;;;;;;;;;;;;;;;;;5089930;28;980;-65
2022/05/09 00:31:29;;;;;;;;;;;;;;;;;;5091083;28;1898;-65
2022/05/09 00:33:55;;;;;;;;;;;;;;;;;;5091785;28;979;-65
2022/05/09 00:36:21;;;;;;;;;;;;;;;;;;5091347;28;824;-65
2022/05/09 00:38:46;;;;;;;;;;;;;;;;;;5090273;28;1214;-65
2022/05/09 00:43:56;;;;;;;;;;;;;;;;;;5091748;28;634;-65
2022/05/09 00:46:23;;;;;;;;;;;;;;;;;;5089762;28;1270;-64
2022/05/09 00:48:48;;;;;;;;;;;;;;;;;;5091573;28;895;-64
2022/05/09 00:51:18;;;;;;;;;;;;;;;;;;5091034;28;1897;-64
2022/05/09 00:53:44;;;;;;;;;;;;;;;;;;5091069;28;817;-64
2022/05/09 00:56:13;;;;;;;;;;;;;;;;;;5089844;28;1407;-65
2022/05/09 00:58:40;;;;;;;;;;;;;;;;;;5090901;28;734;-64
2022/05/09 01:01:07;;;;;;;;;;;;;;;;;;5089307;28;1527;-64
2022/05/09 01:03:38;;;;;;;;;;;;;;;;;;5091259;28;927;-64
2022/05/09 01:06:04;;;;;;;;;;;;;;;;;;5091036;28;1049;-65
2022/05/09 01:08:31;;;;;;;;;;;;;;;;;;5091240;28;979;-65
2022/05/09 01:10:57;;;;;;;;;;;;;;;;;;5091890;28;1894;-64
2022/05/09 01:13:25;;;;;;;;;;;;;;;;;;5091043;28;1303;-64
2022/05/09 01:15:52;;;;;;;;;;;;;;;;;;5091767;28;920;-65
2022/05/09 01:18:17;;;;;;;;;;;;;;;;;;5091151;28;832;-65
2022/05/09 01:20:43;;;;;;;;;;;;;;;;;;5072947;28;1609;-65
2022/05/09 01:23:10;;;;;;;;;;;;;;;;;;5090843;28;995;-65
2022/05/09 01:25:35;;;;;;;;;;;;;;;;;;5089529;28;857;-65
2022/05/09 01:28:01;;;;;;;;;;;;;;;;;;5089746;28;1217;-65
2022/05/09 01:30:26;;;;;;;;;;;;;;;;;;5072289;28;1963;-65
2022/05/09 01:32:56;;;;;;;;;;;;;;;;;;5091606;28;986;-65
2022/05/09 01:35:23;;;;;;;;;;;;;;;;;;5089902;28;1337;-65
2022/05/09 01:37:54;;;;;;;;;;;;;;;;;;5094692;28;839;-65
2022/05/09 01:40:20;;;;;;;;;;;;;;;;;;5094476;28;932;-65
2022/05/09 01:42:45;;;;;;;;;;;;;;;;;;5094186;28;849;-65
2022/05/09 01:45:11;;;;;;;;;;;;;;;;;;5094324;28;888;-64
2022/05/09 01:50:21;;;;;;;;;;;;;;;;;;5093468;28;1968;-65
2022/05/09 01:52:46;;;;;;;;;;;;;;;;;;5094335;28;816;-65
2022/05/09 01:55:12;;;;;;;;;;;;;;;;;;5094307;28;789;-65
2022/05/09 01:57:37;;;;;;;;;;;;;;;;;;5094351;28;1054;-65
2022/05/09 02:00:06;;;;;;;;;;;;;;;;;;5094291;28;765;-65
2022/05/09 02:02:32;;;;;;;;;;;;;;;;;;5093877;28;993;-65
2022/05/09 02:04:57;;;;;;;;;;;;;;;;;;5092689;28;1262;-65
2022/05/09 02:07:23;;;;;;;;;;;;;;;;;;5092507;28;1022;-65
2022/05/09 02:09:49;;;;;;;;;;;;;;;;;;5093598;28;1960;-65
2022/05/09 02:12:15;;;;;;;;;;;;;;;;;;5091618;28;1246;-66
2022/05/09 02:14:40;;;;;;;;;;;;;;;;;;5091824;28;1182;-66
2022/05/09 02:17:07;;;;;;;;;;;;;;;;;;5093724;28;1168;-66
2022/05/09 02:19:32;;;;;;;;;;;;;;;;;;5094173;28;908;-66
2022/05/09 02:21:59;;;;;;;;;;;;;;;;;;5092837;28;1290;-65
2022/05/09 02:24:26;;;;;;;;;;;;;;;;;;5092995;28;875;-65
2022/05/09 02:26:52;;;;;;;;;;;;;;;;;;5092808;28;1524;-65
2022/05/09 02:29:17;;;;;;;;;;;;;;;;;;5093854;28;894;-65
2022/05/09 02:31:42;;;;;;;;;;;;;;;;;;5093704;28;1983;-65
2022/05/09 02:34:08;;;;;;;;;;;;;;;;;;5093891;28;883;-65
2022/05/09 02:36:34;;;;;;;;;;;;;;;;;;5093741;28;980;-65
2022/05/09 02:38:59;;;;;;;;;;;;;;;;;;5091881;28;797;-65
2022/05/09 02:41:25;;;;;;;;;;;;;;;;;;5093442;28;824;-65
2022/05/09 02:43:50;;;;;;;;;;;;;;;;;;5074972;28;1402;-65
2022/05/09 02:46:15;;;;;;;;;;;;;;;;;;5092427;28;1182;-65
2022/05/09 02:48:41;;;;;;;;;;;;;;;;;;5092147;28;821;-65
2022/05/09 02:51:08;;;;;;;;;;;;;;;;;;5091783;28;1962;-65
2022/05/09 02:53:33;;;;;;;;;;;;;;;;;;5092171;28;1346;-65
2022/05/09 02:55:58;;;;;;;;;;;;;;;;;;5093126;28;872;-65
2022/05/09 02:58:24;;;;;;;;;;;;;;;;;;5091776;28;1158;-65
2022/05/09 03:00:50;;;;;;;;;;;;;;;;;;5091793;28;832;-65
2022/05/09 03:06:00;;;;;;;;;;;;;;;;;;5093629;28;637;-65
2022/05/09 03:08:25;;;;;;;;;;;;;;;;;;5061973;28;1378;-65
2022/05/09 03:10:50;;;;;;;;;;;;;;;;;;5067829;28;1961;-65
2022/05/09 03:13:16;;;;;;;;;;;;;;;;;;5082542;28;1251;-65
2022/05/09 03:15:42;;;;;;;;;;;;;;;;;;5091176;28;1170;-66
2022/05/09 03:18:07;;;;;;;;;;;;;;;;;;5092850;28;888;-65
2022/05/09 03:20:33;;;;;;;;;;;;;;;;;;5092513;28;856;-65
2022/05/09 03:22:58;;;;;;;;;;;;;;;;;;5092626;28;793;-65
2022/05/09 03:25:24;;;;;;;;;;;;;;;;;;5092642;28;876;-65
2022/05/09 03:27:50;;;;;;;;;;;;;;;;;;5090896;28;1482;-65
2022/05/09 03:30:16;;;;;;;;;;;;;;;;;;5092581;28;2282;-65
2022/05/09 03:32:41;;;;;;;;;;;;;;;;;;5090790;28;1328;-64
2022/05/09 03:35:08;;;;;;;;;;;;;;;;;;5092318;28;891;-65
2022/05/09 03:37:33;;;;;;;;;;;;;;;;;;5092470;28;793;-66
2022/05/09 03:39:58;;;;;;;;;;;;;;;;;;5092131;28;880;-65
2022/05/09 03:42:23;;;;;;;;;;;;;;;;;;5092050;28;895;-65
2022/05/09 03:44:49;;;;;;;;;;;;;;;;;;5092385;28;852;-65
2022/05/09 03:47:15;;;;;;;;;;;;;;;;;;5091798;28;987;-65
2022/05/09 03:49:40;;;;;;;;;;;;;;;;;;5091115;28;901;-65
2022/05/09 03:52:05;;;;;;;;;;;;;;;;;;5091985;28;1915;-65
2022/05/09 03:54:30;;;;;;;;;;;;;;;;;;5092221;28;1014;-66
2022/05/09 03:56:56;;;;;;;;;;;;;;;;;;5092010;28;899;-66
2022/05/09 03:59:21;;;;;;;;;;;;;;;;;;5090716;28;900;-66
2022/05/09 04:01:46;;;;;;;;;;;;;;;;;;5091543;28;872;-65
2022/05/09 04:04:12;;;;;;;;;;;;;;;;;;5091536;28;930;-65
2022/05/09 04:06:37;;;;;;;;;;;;;;;;;;5092295;28;941;-65
2022/05/09 04:09:02;;;;;;;;;;;;;;;;;;5092670;28;904;-65
2022/05/09 04:11:28;;;;;;;;;;;;;;;;;;5090904;28;1895;-66
2022/05/09 04:13:53;;;;;;;;;;;;;;;;;;5092034;28;1099;-66
2022/05/09 04:19:02;;;;;;;;;;;;;;;;;;5092389;28;678;-65
2022/05/09 04:21:27;;;;;;;;;;;;;;;;;;5092230;28;859;-65
2022/05/09 04:23:56;;;;;;;;;;;;;;;;;;5092444;28;1009;-65
2022/05/09 04:26:23;;;;;;;;;;;;;;;;;;5091168;28;820;-66
2022/05/09 04:28:48;;;;;;;;;;;;;;;;;;5090942;28;1379;-65
2022/05/09 04:31:14;;;;;;;;;;;;;;;;;;5091795;28;1901;-65
2022/05/09 04:33:41;;;;;;;;;;;;;;;;;;5092500;28;722;-65
2022/05/09 04:36:06;;;;;;;;;;;;;;;;;;5089894;28;1362;-65
2022/05/09 04:38:32;;;;;;;;;;;;;;;;;;5089908;28;1392;-65
2022/05/09 04:40:58;;;;;;;;;;;;;;;;;;5088021;28;1306;-65
2022/05/09 04:43:26;;;;;;;;;;;;;;;;;;5088152;28;1369;-65
2022/05/09 04:45:51;;;;;;;;;;;;;;;;;;5088494;28;1297;-64
2022/05/09 04:48:17;;;;;;;;;;;;;;;;;;5090853;28;1184;-65
2022/05/09 04:50:43;;;;;;;;;;;;;;;;;;5091072;28;1902;-65
2022/05/09 04:53:08;;;;;;;;;;;;;;;;;;5089412;28;1182;-65
2022/05/09 04:55:33;;;;;;;;;;;;;;;;;;5089998;28;1175;-65
2022/05/09 04:57:59;;;;;;;;;;;;;;;;;;5090762;28;836;-64
2022/05/09 05:00:26;;;;;;;;;;;;;;;;;;5090808;28;1063;-64
2022/05/09 05:02:51;;;;;;;;;;;;;;;;;;5089769;28;1230;-64
2022/05/09 05:05:17;;;;;;;;;;;;;;;;;;5084302;28;1231;-65
2022/05/09 05:07:42;;;;;;;;;;;;;;;;;;5089523;28;1242;-65
2022/05/09 05:10:08;;;;;;;;;;;;;;;;;;5089314;28;1905;-64
2022/05/09 05:12:34;;;;;;;;;;;;;;;;;;5073308;28;1406;-64
2022/05/09 05:15:00;;;;;;;;;;;;;;;;;;5074575;28;857;-64
2022/05/09 05:17:25;;;;;;;;;;;;;;;;;;5074637;28;880;-65
2022/05/09 05:19:51;;;;;;;;;;;;;;;;;;5074801;28;951;-64
2022/05/09 05:22:16;;;;;;;;;;;;;;;;;;5072751;28;944;-65
2022/05/09 05:24:43;;;;;;;;;;;;;;;;;;5074354;28;864;-65
2022/05/09 05:27:09;;;;;;;;;;;;;;;;;;5072207;28;1241;-65
2022/05/09 05:29:34;;;;;;;;;;;;;;;;;;5074409;28;805;-65
2022/05/09 05:31:59;;;;;;;;;;;;;;;;;;5072590;28;1969;-65
2022/05/09 05:34:25;;;;;;;;;;;;;;;;;;5074283;28;1023;-65
2022/05/09 05:36:50;;;;;;;;;;;;;;;;;;5056654;28;1206;-65
2022/05/09 05:39:16;;;;;;;;;;;;;;;;;;5073906;28;774;-65
2022/05/09 05:41:42;;;;;;;;;;;;;;;;;;5073012;28;1226;-65
2022/05/09 05:44:11;;;;;;;;;;;;;;;;;;5073931;28;826;-65
2022/05/09 05:46:37;;;;;;;;;;;;;;;;;;5074341;28;838;-65
2022/05/09 05:49:02;;;;;;;;;;;;;;;;;;5074645;28;797;-65
2022/05/09 05:51:28;;;;;;;;;;;;;;;;;;5056176;28;1905;-65
2022/05/09 05:53:54;;;;;;;;;;;;;;;;;;5056417;28;1230;-65
2022/05/09 05:56:19;;;;;;;;;;;;;;;;;;5072778;28;1350;-65
2022/05/09 05:58:45;;;;;;;;;;;;;;;;;;5072973;28;829;-66
2022/05/09 06:01:10;;;;;;;;;;;;;;;;;;5074143;28;889;-65
2022/05/09 06:03:35;;;;;;;;;;;;;;;;;;5074030;28;1167;-65
2022/05/09 06:06:01;;;;;;;;;;;;;;;;;;5072167;28;1405;-65
2022/05/09 06:08:26;;;;;;;;;;;;;;;;;;5072967;28;1080;-65
2022/05/09 06:10:52;;;;;;;;;;;;;;;;;;5072765;28;1894;-65
2022/05/09 06:13:17;;;;;;;;;;;;;;;;;;5073565;28;1116;-65
2022/05/09 06:15:42;;;;;;;;;;;;;;;;;;5055994;28;1218;-65
2022/05/09 06:18:09;;;;;;;;;;;;;;;;;;5072441;28;1221;-65
2022/05/09 06:20:35;;;;;;;;;;;;;;;;;;5073806;28;805;-65
2022/05/09 06:23:03;;;;;;;;;;;;;;;;;;5070783;28;1331;-65
2022/05/09 06:25:29;;;;;;;;;;;;;;;;;;5073473;28;872;-65
2022/05/09 06:27:55;;;;;;;;;;;;;;;;;;5072824;28;1182;-65
2022/05/09 06:30:21;;;;;;;;;;;;;;;;;;5073092;28;1965;-65
2022/05/09 06:32:47;;;;;;;;;;;;;;;;;;5072436;28;1052;-65
2022/05/09 06:35:20;;;;;;;;;;;;;;;;;;5072182;28;957;-65
2022/05/09 06:37:45;;;;;;;;;;;;;;;;;;5073215;28;808;-65
2022/05/09 06:40:11;;;;;;;;;;;;;;;;;;5072760;28;833;-65
2022/05/09 06:42:37;;;;;;;;;;;;;;;;;;5071828;28;1202;-65
2022/05/09 06:45:03;;;;;;;;;;;;;;;;;;5073687;28;844;-65
2022/05/09 06:47:28;;;;;;;;;;;;;;;;;;5071502;28;1422;-65
2022/05/09 06:49:57;;;;;;;;;;;;;;;;;;5071632;28;1909;-65
2022/05/09 06:52:22;;;;;;;;;;;;;;;;;;5071406;28;1114;-65
2022/05/09 06:54:48;;;;;;;;;;;;;;;;;;5054903;28;1255;-65
2022/05/09 06:57:13;;;;;;;;;;;;;;;;;;5071406;28;868;-65
2022/05/09 06:59:38;;;;;;;;;;;;;;;;;;5073483;28;849;-65
2022/05/09 07:02:03;;;;;;;;;;;;;;;;;;5073534;28;817;-65
2022/05/09 07:04:29;;;;;;;;;;;;;;;;;;5054640;28;1336;-65
2022/05/09 07:06:54;;;;;;;;;;;;;;;;;;5072203;28;997;-65
2022/05/09 07:09:20;;;;;;;;;;;;;;;;;;5054730;28;1368;-65
2022/05/09 07:11:45;;;;;;;;;;;;;;;;;;5072935;28;1902;-65
2022/05/09 07:14:10;;;;;;;;;;;;;;;;;;5073189;28;999;-65
2022/05/09 07:16:36;;;;;;;;;;;;;;;;;;5055290;28;1361;-65
2022/05/09 07:19:03;;;;;;;;;;;;;;;;;;5073303;28;832;-65
2022/05/09 07:21:29;;;;;;;;;;;;;;;;;;5072856;28;770;-65
2022/05/09 07:23:54;;;;;;;;;;;;;;;;;;5073242;28;1234;-65
2022/05/09 07:26:20;;;;;;;;;;;;;;;;;;5071518;28;919;-65
2022/05/09 07:28:45;;;;;;;;;;;;;;;;;;5071257;28;833;-65
2022/05/09 07:31:10;;;;;;;;;;;;;;;;;;5072466;28;1906;-65
2022/05/09 07:33:36;;;;;;;;;;;;;;;;;;5070730;28;1257;-65
2022/05/09 07:36:02;;;;;;;;;;;;;;;;;;5072397;28;947;-65
2022/05/09 07:38:27;;;;;;;;;;;;;;;;;;5071968;28;957;-65
2022/05/09 07:40:52;;;;;;;;;;;;;;;;;;5071121;28;860;-65
2022/05/09 07:43:23;;;;;;;;;;;;;;;;;;5070632;28;908;-65
2022/05/09 07:45:48;;;;;;;;;;;;;;;;;;5072354;28;862;-65
2022/05/09 07:48:14;;;;;;;;;;;;;;;;;;5070574;28;928;-65
2022/05/09 07:50:40;;;;;;;;;;;;;;;;;;5071719;28;1898;-65
2022/05/09 07:53:06;;;;;;;;;;;;;;;;;;5070497;28;1310;-65
2022/05/09 07:55:31;;;;;;;;;;;;;;;;;;5070222;28;840;-65
2022/05/09 07:57:57;;;;;;;;;;;;;;;;;;5070389;28;1128;-65
2022/05/09 08:00:22;;;;;;;;;;;;;;;;;;5071404;28;818;-65
2022/05/09 08:02:47;;;;;;;;;;;;;;;;;;5070334;28;1159;-65
2022/05/09 08:05:14;;;;;;;;;;;;;;;;;;5071326;28;1080;-65
2022/05/09 08:07:40;;;;;;;;;;;;;;;;;;5071338;28;1009;-65
2022/05/09 08:10:07;;;;;;;;;;;;;;;;;;5069596;28;1898;-65
2022/05/09 08:12:32;;;;;;;;;;;;;;;;;;5070738;28;1159;-65
2022/05/09 08:14:59;;;;;;;;;;;;;;;;;;5071610;28;1036;-65
2022/05/09 08:17:24;;;;;;;;;;;;;;;;;;5069894;28;1083;-65
2022/05/09 08:19:55;;;;;;;;;;;;;;;;;;5072075;28;860;-65
2022/05/09 08:22:20;;;;;;;;;;;;;;;;;;5054382;28;1211;-65
2022/05/09 08:24:46;;;;;;;;;;;;;;;;;;5069883;28;825;-65
2022/05/09 08:27:11;;;;;;;;;;;;;;;;;;5069894;28;1418;-65
2022/05/09 08:29:36;;;;;;;;;;;;;;;;;;5071597;28;888;-65
2022/05/09 08:32:02;;;;;;;;;;;;;;;;;;5071535;28;1981;-65
2022/05/09 08:34:27;;;;;;;;;;;;;;;;;;5070930;28;796;-65
2022/05/09 08:36:55;;;;;;;;;;;;;;;;;;5071156;28;845;-65
2022/05/09 08:39:22;;;;;;;;;;;;;;;;;;5071377;28;856;-65
2022/05/09 08:41:50;;;;;;;;;;;;;;;;;;5053243;28;1257;-65
2022/05/09 08:44:27;;;;;;;;;;;;;;;;;;5069796;28;1343;-65
2022/05/09 08:47:10;;;;;;;;;;;;;;;;;;5071104;28;908;-65
2022/05/09 08:49:48;;;;;;;;;;;;;;;;;;5069318;28;1163;-65
2022/05/09 08:52:20;;;;;;;;;;;;;;;;;;5070774;28;1924;-65
2022/05/09 08:54:45;;;;;;;;;;;;;;;;;;5071098;28;888;-65
2022/05/09 08:57:13;;;;;;;;;;;;;;;;;;5070047;28;879;-65
2022/05/09 08:59:42;;;;;;;;;;;;;;;;;;5069590;28;1235;-65
2022/05/09 09:02:07;;;;;;;;;;;;;;;;;;5069455;28;1190;-65
2022/05/09 09:04:34;;;;;;;;;;;;;;;;;;5070159;28;860;-65
2022/05/09 09:07:18;;;;;;;;;;;;;;;;;;5070957;28;992;-65
2022/05/09 09:09:46;;;;;;;;;;;;;;;;;;5070909;28;865;-65
2022/05/09 09:12:11;;;;;;;;;;;;;;;;;;5070710;28;1902;-65
2022/05/09 09:14:55;;;;;;;;;;;;;;;;;;5070743;28;1091;-65
2022/05/09 09:17:24;;;;;;;;;;;;;;;;;;5069615;28;1231;-65
2022/05/09 09:19:50;;;;;;;;;;;;;;;;;;5070906;28;833;-65
2022/05/09 09:22:42;;;;;;;;;;;;;;;;;;5069450;28;1357;-65
2022/05/09 09:25:15;;;;;;;;;;;;;;;;;;5070738;28;832;-65
2022/05/09 09:27:43;;;;;;;;;;;;;;;;;;5071068;28;900;-65
2022/05/09 09:30:11;;;;;;;;;;;;;;;;;;5070773;28;1910;-65
2022/05/09 09:32:39;;;;;;;;;;;;;;;;;;5070568;28;977;-66
2022/05/09 09:35:26;;;;;;;;;;;;;;;;;;5071051;28;880;-65
2022/05/09 09:38:15;;;;;;;;;;;;;;;;;;5070765;28;863;-65
2022/05/09 09:40:40;;;;;;;;;;;;;;;;;;5051106;28;1117;-65
2022/05/09 09:43:05;;;;;;;;;;;;;;;;;;5069275;28;1299;-64
2022/05/09 09:45:33;;;;;;;;;;;;;;;;;;5068994;28;895;-64
2022/05/09 09:48:07;;;;;;;;;;;;;;;;;;5070686;28;832;-64
2022/05/09 09:50:33;;;;;;;;;;;;;;;;;;5069936;28;1898;-64
2022/05/09 09:52:59;;;;;;;;;;;;;;;;;;5070607;28;888;-64
2022/05/09 09:55:53;;;;;;;;;;;;;;;;;;5068864;28;801;-64
2022/05/09 09:58:26;;;;;;;;;;;;;;;;;;5064596;28;1508;-64
2022/05/09 10:01:05;;;;;;;;;;;;;;;;;;5072079;28;1303;-64
2022/05/09 10:03:31;;;;;;;;;;;;;;;;;;5073557;28;860;-64
2022/05/09 10:05:56;;;;;;;;;;;;;;;;;;5073660;28;884;-64
2022/05/09 10:08:39;;;;;;;;;;;;;;;;;;5074029;28;885;-64
2022/05/09 10:11:09;;;;;;;;;;;;;;;;;;5073909;28;1968;-64
2022/05/09 10:13:44;;;;;;;;;;;;;;;;;;5073515;28;1072;-64
2022/05/09 10:16:12;;;;;;;;;;;;;;;;;;5073686;28;844;-64
2022/05/09 10:18:37;;;;;;;;;;;;;;;;;;5073641;28;876;-64
2022/05/09 10:24:47;;;;;;;;;;;;;;;;;;5073546;28;805;-64
2022/05/09 10:26:52;;;;;;;;;;;;;;;;;;5073606;28;670;-64
2022/05/09 10:29:17;;;;;;;;;;;;;;;;;;5072194;28;1233;-64
2022/05/09 10:31:53;;;;;;;;;;;;;;;;;;5073149;28;1914;-64
2022/05/09 10:34:37;;;;;;;;;;;;;;;;;;5071503;28;1266;-64
2022/05/09 10:37:07;;;;;;;;;;;;;;;;;;5071993;28;1219;-64
2022/05/09 10:39:50;;;;;;;;;;;;;;;;;;5071246;28;1250;-64
2022/05/09 10:42:20;;;;;;;;;;;;;;;;;;5072980;28;908;-64
2022/05/09 10:44:49;;;;;;;;;;;;;;;;;;5073235;28;880;-64
2022/05/09 10:47:25;;;;;;;;;;;;;;;;;;5072864;28;899;-65
2022/05/09 10:49:53;;;;;;;;;;;;;;;;;;5073244;28;896;-65
2022/05/09 10:52:27;;;;;;;;;;;;;;;;;;5073415;28;1913;-64
2022/05/09 10:54:55;;;;;;;;;;;;;;;;;;5071555;28;1239;-64
2022/05/09 10:57:29;;;;;;;;;;;;;;;;;;5073452;28;743;-65
2022/05/09 11:00:01;;;;;;;;;;;;;;;;;;5072825;28;836;-64
2022/05/09 11:02:29;;;;;;;;;;;;;;;;;;5071686;28;1266;-66
2022/05/09 11:04:55;;;;;;;;;;;;;;;;;;5073658;28;979;-65
2022/05/09 11:07:32;;;;;;;;;;;;;;;;;;5073119;28;898;-65
2022/05/09 11:10:06;;;;;;;;;;;;;;;;;;5072672;28;897;-66
2022/05/09 11:12:37;;;;;;;;;;;;;;;;;;5073089;28;1203;-65
2022/05/09 11:15:05;;;;;;;;;;;;;;;;;;5073108;28;1047;-65
2022/05/09 11:17:31;;;;;;;;;;;;;;;;;;5072027;28;1240;-65
2022/05/09 11:19:56;;;;;;;;;;;;;;;;;;5072926;28;814;-66
2022/05/09 11:22:30;;;;;;;;;;;;;;;;;;5071333;28;1211;-66
2022/05/09 11:24:56;;;;;;;;;;;;;;;;;;5072799;28;857;-66
2022/05/09 11:27:21;;;;;;;;;;;;;;;;;;5072394;28;777;-66
2022/05/09 11:29:47;;;;;;;;;;;;;;;;;;5070963;28;1255;-66
2022/05/09 11:32:19;;;;;;;;;;;;;;;;;;5070755;28;1910;-66
2022/05/09 11:34:47;;;;;;;;;;;;;;;;;;5072151;28;836;-66
2022/05/09 11:37:13;;;;;;;;;;;;;;;;;;5072102;28;936;-66
2022/05/09 11:39:54;;;;;;;;;;;;;;;;;;5070759;28;1111;-66
2022/05/09 11:45:07;;;;;;;;;;;;;;;;;;5071465;28;682;-66
2022/05/09 11:47:41;;;;;;;;;;;;;;;;;;5070070;28;1242;-66
2022/05/09 11:50:20;;;;;;;;;;;;;;;;;;5069917;28;1894;-66
2022/05/09 11:52:46;;;;;;;;;;;;;;;;;;5071842;28;761;-66
2022/05/09 11:55:22;;;;;;;;;;;;;;;;;;5069853;28;1307;-66
2022/05/09 11:57:49;;;;;;;;;;;;;;;;;;5070006;28;1218;-66
2022/05/09 12:00:43;;;;;;;;;;;;;;;;;;5071173;28;845;-65
2022/05/09 12:03:10;;;;;;;;;;;;;;;;;;5067416;28;1282;-66
2022/05/09 12:05:36;;;;;;;;;;;;;;;;;;5071388;28;883;-65
2022/05/09 12:08:04;;;;;;;;;;;;;;;;;;5069836;28;1288;-65
2022/05/09 12:10:31;;;;;;;;;;;;;;;;;;5069691;28;1960;-65
2022/05/09 12:13:04;;;;;;;;;;;;;;;;;;5069659;28;1460;-65
2022/05/09 12:15:29;;;;;;;;;;;;;;;;;;5069787;28;1186;-65
2022/05/09 12:17:54;;;;;;;;;;;;;;;;;;5070960;28;948;-65
2022/05/09 12:20:29;;;;;;;;;;;;;;;;;;5069683;28;872;-65
2022/05/09 12:23:03;;;;;;;;;;;;;;;;;;5071490;28;812;-65
2022/05/09 12:25:28;;;;;;;;;;;;;;;;;;5070956;28;782;-65
2022/05/09 12:28:04;;;;;;;;;;;;;;;;;;5071435;28;990;-65
2022/05/09 12:30:42;;;;;;;;;;;;;;;;;;5069754;28;1913;-65
2022/05/09 12:33:16;;;;;;;;;;;;;;;;;;5071185;28;920;-65
2022/05/09 12:35:42;;;;;;;;;;;;;;;;;;5071171;28;920;-65
2022/05/09 12:38:09;;;;;;;;;;;;;;;;;;5071071;28;836;-65
2022/05/09 12:40:35;;;;;;;;;;;;;;;;;;5070997;28;1048;-65
2022/05/09 12:43:02;;;;;;;;;;;;;;;;;;5071063;28;1054;-65
2022/05/09 12:45:27;;;;;;;;;;;;;;;;;;5070579;28;1061;-65
2022/05/09 12:47:53;;;;;;;;;;;;;;;;;;5071406;28;939;-65
2022/05/09 12:50:27;;;;;;;;;;;;;;;;;;5052575;28;1955;-65
2022/05/09 12:53:00;;;;;;;;;;;;;;;;;;5069849;28;1202;-65
2022/05/09 12:58:26;;;;;;;;;;;;;;;;;;5071234;28;682;-65
2022/05/09 13:00:56;;;;;;;;;;;;;;;;;;5069823;28;1328;-65
2022/05/09 13:03:22;;;;;;;;;;;;;;;;;;5069888;28;825;-65
2022/05/09 13:05:47;;;;;;;;;;;;;;;;;;5071000;28;898;-65
2022/05/09 13:08:14;;;;;;;;;;;;;;;;;;5071079;28;999;-65
2022/05/09 13:10:48;;;;;;;;;;;;;;;;;;5071113;28;1949;-65
2022/05/09 13:13:21;;;;;;;;;;;;;;;;;;5069174;28;2673;-65
2022/05/09 13:15:47;;;;;;;;;;;;;;;;;;5071172;28;844;-65
2022/05/09 13:18:14;;;;;;;;;;;;;;;;;;5070643;28;990;-65
2022/05/09 13:20:48;;;;;;;;;;;;;;;;;;5070657;28;880;-65
2022/05/09 13:23:13;;;;;;;;;;;;;;;;;;5070832;28;939;-65
2022/05/09 13:25:40;;;;;;;;;;;;;;;;;;5070883;28;904;-65
2022/05/09 13:28:07;;;;;;;;;;;;;;;;;;5070695;28;1206;-65
2022/05/09 13:30:35;;;;;;;;;;;;;;;;;;5070852;28;1985;-66
2022/05/09 13:33:01;;;;;;;;;;;;;;;;;;5073685;28;888;-65
2022/05/09 13:35:37;;;;;;;;;;;;;;;;;;5074056;28;865;-65
2022/05/09 13:38:25;;;;;;;;;;;;;;;;;;5074245;28;825;-65
2022/05/09 13:40:55;;;;;;;;;;;;;;;;;;5074136;28;836;-65
2022/05/09 13:43:23;;;;;;;;;;;;;;;;;;5074065;28;887;-65
2022/05/09 13:45:58;;;;;;;;;;;;;;;;;;5074679;28;896;-65
2022/05/09 13:48:23;;;;;;;;;;;;;;;;;;5074116;28;1061;-65
2022/05/09 13:50:50;;;;;;;;;;;;;;;;;;5072809;28;1890;-65
2022/05/09 13:53:25;;;;;;;;;;;;;;;;;;5074168;28;884;-65
2022/05/09 13:55:50;;;;;;;;;;;;;;;;;;5073995;28;999;-65
2022/05/09 13:58:20;;;;;;;;;;;;;;;;;;5073755;28;836;-65
2022/05/09 14:00:47;;;;;;;;;;;;;;;;;;5074775;28;1041;-65
2022/05/09 14:03:12;;;;;;;;;;;;;;;;;;5073813;28;848;-65
2022/05/09 14:05:39;;;;;;;;;;;;;;;;;;5074138;28;781;-65
2022/05/09 14:08:06;;;;;;;;;;;;;;;;;;5072350;28;1467;-65
2022/05/09 14:10:33;;;;;;;;;;;;;;;;;;5073283;28;1956;-65
2022/05/09 14:13:00;;;;;;;;;;;;;;;;;;5072158;28;1347;-65
2022/05/09 14:15:28;;;;;;;;;;;;;;;;;;5072184;28;782;-65
2022/05/09 14:17:56;;;;;;;;;;;;;;;;;;5074141;28;828;-65
2022/05/09 14:20:26;;;;;;;;;;;;;;;;;;5072818;28;658;-65
2022/05/09 14:22:52;;;;;;;;;;;;;;;;;;5071811;28;1313;-65
2022/05/09 14:31:18;;;;;;;;;;;;;;;;;;5070421;28;1910;-65
2022/05/09 14:33:44;;;;;;;;;;;;;;;;;;5072836;28;1175;-65
2022/05/09 14:36:26;;;;;;;;;;;;;;;;;;5054589;28;1349;-65
2022/05/09 14:38:56;;;;;;;;;;;;;;;;;;5073600;28;985;-65
2022/05/09 14:41:36;;;;;;;;;;;;;;;;;;5072688;28;789;-65
2022/05/09 14:44:26;;;;;;;;;;;;;;;;;;5070201;28;1346;-65
2022/05/09 14:47:00;;;;;;;;;;;;;;;;;;5071912;28;1182;-65
2022/05/09 14:49:27;;;;;;;;;;;;;;;;;;5071068;28;1470;-66
2022/05/09 14:51:57;;;;;;;;;;;;;;;;;;5071711;28;1942;-66
2022/05/09 14:54:24;;;;;;;;;;;;;;;;;;5071556;28;1208;-66
2022/05/09 14:59:35;;;;;;;;;;;;;;;;;;5073161;28;698;-66
2022/05/09 15:02:24;;;;;;;;;;;;;;;;;;5071634;28;1236;-66
2022/05/09 15:04:49;;;;;;;;;;;;;;;;;;5063668;28;1168;-66
2022/05/09 15:07:14;;;;;;;;;;;;;;;;;;5071179;28;1191;-66
2022/05/09 15:09:40;;;;;;;;;;;;;;;;;;5072896;28;1055;-65
2022/05/09 15:12:19;;;;;;;;;;;;;;;;;;5054501;28;1898;-66
2022/05/09 15:14:45;;;;;;;;;;;;;;;;;;5071326;28;1471;-66
2022/05/09 15:17:10;;;;;;;;;;;;;;;;;;5071377;28;817;-66
2022/05/09 15:19:35;;;;;;;;;;;;;;;;;;5071876;28;1019;-66
2022/05/09 15:22:00;;;;;;;;;;;;;;;;;;5071298;28;1467;-66
2022/05/09 15:24:25;;;;;;;;;;;;;;;;;;5072331;28;845;-66
2022/05/09 15:26:52;;;;;;;;;;;;;;;;;;5071636;28;1283;-66
2022/05/09 15:29:17;;;;;;;;;;;;;;;;;;5072219;28;900;-66
2022/05/09 15:31:42;;;;;;;;;;;;;;;;;;5072211;28;1983;-66
2022/05/09 15:34:09;;;;;;;;;;;;;;;;;;5054273;28;1255;-66
2022/05/09 15:36:35;;;;;;;;;;;;;;;;;;5070271;28;1276;-66
2022/05/09 15:39:00;;;;;;;;;;;;;;;;;;5054194;28;1219;-66
2022/05/09 15:41:27;;;;;;;;;;;;;;;;;;5072206;28;954;-66
2022/05/09 15:43:56;;;;;;;;;;;;;;;;;;5072287;28;880;-66
2022/05/09 15:46:25;;;;;;;;;;;;;;;;;;5071973;28;912;-70
2022/05/09 15:48:50;;;;;;;;;;;;;;;;;;5072013;28;903;-70
2022/05/09 15:51:15;;;;;;;;;;;;;;;;;;5071645;28;1897;-70
2022/05/09 15:53:41;;;;;;;;;;;;;;;;;;5071779;28;999;-70
2022/05/09 15:56:06;;;;;;;;;;;;;;;;;;5071783;28;825;-70
2022/05/09 15:58:40;;;;;;;;;;;;;;;;;;5071443;28;927;-70
2022/05/09 16:01:08;;;;;;;;;;;;;;;;;;5071594;28;978;-70
2022/05/09 16:03:35;;;;;;;;;;;;;;;;;;5071253;28;927;-70
2022/05/09 16:11:29;;;;;;;;;;;;;;;;;;5071038;28;1914;-70
2022/05/09 16:13:56;;;;;;;;;;;;;;;;;;5053070;28;1246;-70
2022/05/09 16:16:27;;;;;;;;;;;;;;;;;;5071127;28;837;-70
2022/05/09 16:18:52;;;;;;;;;;;;;;;;;;5070097;28;1253;-66
2022/05/09 16:21:18;;;;;;;;;;;;;;;;;;5071753;28;844;-66
2022/05/09 16:23:44;;;;;;;;;;;;;;;;;;5070743;28;828;-66
2022/05/09 16:26:10;;;;;;;;;;;;;;;;;;5069931;28;1392;-65
2022/05/09 16:28:36;;;;;;;;;;;;;;;;;;5069427;28;1421;-66
2022/05/09 16:31:02;;;;;;;;;;;;;;;;;;5053210;28;1906;-66
2022/05/09 16:33:28;;;;;;;;;;;;;;;;;;5070745;28;940;-66
2022/05/09 16:35:55;;;;;;;;;;;;;;;;;;5071971;28;1116;-65
2022/05/09 16:38:21;;;;;;;;;;;;;;;;;;5070431;28;854;-65
2022/05/09 16:40:47;;;;;;;;;;;;;;;;;;5070031;28;1234;-66
2022/05/09 16:43:14;;;;;;;;;;;;;;;;;;5072066;28;765;-66
2022/05/09 16:45:39;;;;;;;;;;;;;;;;;;5071610;28;943;-65
2022/05/09 16:48:05;;;;;;;;;;;;;;;;;;5072522;28;856;-66
2022/05/09 16:50:30;;;;;;;;;;;;;;;;;;5071098;28;1902;-66
2022/05/09 16:52:56;;;;;;;;;;;;;;;;;;5070029;28;1156;-66
2022/05/09 16:55:22;;;;;;;;;;;;;;;;;;5070611;28;833;-65
2022/05/09 16:57:50;;;;;;;;;;;;;;;;;;5069882;28;1301;-65
2022/05/09 17:00:17;;;;;;;;;;;;;;;;;;5054178;28;1567;-65
2022/05/09 17:02:43;;;;;;;;;;;;;;;;;;5071559;28;762;-65
2022/05/09 17:05:09;;;;;;;;;;;;;;;;;;5071783;28;955;-65
2022/05/09 17:07:34;;;;;;;;;;;;;;;;;;5073489;28;904;-65
2022/05/09 17:10:00;;;;;;;;;;;;;;;;;;5075527;28;900;-65
2022/05/09 17:12:34;;;;;;;;;;;;;;;;;;5073914;28;1985;-65
2022/05/09 17:15:00;;;;;;;;;;;;;;;;;;5074181;28;1222;-65
2022/05/09 17:17:28;;;;;;;;;;;;;;;;;;5075279;28;836;-65
2022/05/09 17:19:54;;;;;;;;;;;;;;;;;;5075643;28;1070;-65
2022/05/09 17:22:19;;;;;;;;;;;;;;;;;;5073920;28;1207;-66
2022/05/09 17:24:45;;;;;;;;;;;;;;;;;;5075796;28;828;-65
2022/05/09 17:27:13;;;;;;;;;;;;;;;;;;5075015;28;781;-65
2022/05/09 17:29:38;;;;;;;;;;;;;;;;;;5074544;28;855;-65
2022/05/09 17:32:04;;;;;;;;;;;;;;;;;;5073662;28;1984;-65
2022/05/09 17:34:30;;;;;;;;;;;;;;;;;;5073531;28;916;-65
2022/05/09 17:39:39;;;;;;;;;;;;;;;;;;5073326;28;635;-65
2022/05/09 17:42:05;;;;;;;;;;;;;;;;;;5074642;28;828;-65
2022/05/09 17:44:32;;;;;;;;;;;;;;;;;;5073109;28;1269;-65
2022/05/09 17:46:57;;;;;;;;;;;;;;;;;;5074555;28;782;-65
2022/05/09 17:49:23;;;;;;;;;;;;;;;;;;5056115;28;1123;-65
2022/05/09 17:51:48;;;;;;;;;;;;;;;;;;5073879;28;1906;-64
2022/05/09 17:54:14;;;;;;;;;;;;;;;;;;5074784;28;849;-65